sensor_id;sensor_type;location;lat;lon;timestamp;P1;durP1;ratioP1;P2;durP2;ratioP2
24743;SDS011;12844;52.110;5.548;2022-08-01T00:01:32;2.90;;;2.60;;
24743;SDS011;12844;52.110;5.548;2022-08-01T00:03:58;2.80;;;2.50;;
24743;SDS011;12844;52.110;5.548;2022-08-01T00:06:24;2.55;;;2.33;;
24743;SDS011;12844;52.110;5.548;2022-08-01T00:08:49;2.25;;;2.05;;
24743;SDS011;12844;52.110;5.548;2022-08-01T00:11:15;2.58;;;2.38;;
24743;SDS011;12844;52.110;5.548;2022-08-01T00:13:41;3.15;;;2.20;;
24743;SDS011;12844;52.110;5.548;2022-08-01T00:16:06;2.60;;;2.40;;
24743;SDS011;12844;52.110;5.548;2022-08-01T00:18:32;2.72;;;2.53;;
24743;SDS011;12844;52.110;5.548;2022-08-01T00:20:58;2.72;;;2.50;;
24743;SDS011;12844;52.110;5.548;2022-08-01T00:23:23;2.47;;;2.28;;
24743;SDS011;12844;52.110;5.548;2022-08-01T00:25:49;2.67;;;2.30;;
24743;SDS011;12844;52.110;5.548;2022-08-01T00:28:14;2.75;;;2.55;;
24743;SDS011;12844;52.110;5.548;2022-08-01T00:30:41;2.90;;;2.60;;
24743;SDS011;12844;52.110;5.548;2022-08-01T00:33:06;2.63;;;2.42;;
24743;SDS011;12844;52.110;5.548;2022-08-01T00:35:32;2.67;;;2.47;;
24743;SDS011;12844;52.110;5.548;2022-08-01T00:37:57;2.75;;;2.50;;
24743;SDS011;12844;52.110;5.548;2022-08-01T00:40:23;2.60;;;2.40;;
24743;SDS011;12844;52.110;5.548;2022-08-01T00:42:48;2.60;;;2.40;;
24743;SDS011;12844;52.110;5.548;2022-08-01T00:45:14;2.80;;;2.50;;
24743;SDS011;12844;52.110;5.548;2022-08-01T00:47:39;2.70;;;2.50;;
24743;SDS011;12844;52.110;5.548;2022-08-01T00:50:05;2.40;;;2.20;;
24743;SDS011;12844;52.110;5.548;2022-08-01T00:52:32;2.78;;;2.53;;
24743;SDS011;12844;52.110;5.548;2022-08-01T00:54:58;2.67;;;2.30;;
24743;SDS011;12844;52.110;5.548;2022-08-01T00:57:24;2.55;;;2.35;;
24743;SDS011;12844;52.110;5.548;2022-08-01T00:59:50;2.60;;;2.40;;
24743;SDS011;12844;52.110;5.548;2022-08-01T01:02:17;2.63;;;2.42;;
24743;SDS011;12844;52.110;5.548;2022-08-01T01:04:43;3.00;;;2.67;;
24743;SDS011;12844;52.110;5.548;2022-08-01T01:07:27;3.03;;;2.40;;
24743;SDS011;12844;52.110;5.548;2022-08-01T01:12:32;2.45;;;2.25;;
24743;SDS011;12844;52.110;5.548;2022-08-01T01:17:41;3.30;;;2.67;;
24743;SDS011;12844;52.110;5.548;2022-08-01T01:20:12;2.40;;;2.20;;
24743;SDS011;12844;52.110;5.548;2022-08-01T01:22:46;2.67;;;2.47;;
24743;SDS011;12844;52.110;5.548;2022-08-01T01:31:06;2.60;;;2.40;;
24743;SDS011;12844;52.110;5.548;2022-08-01T01:33:36;2.70;;;2.50;;
24743;SDS011;12844;52.110;5.548;2022-08-01T01:36:05;2.70;;;2.22;;
24743;SDS011;12844;52.110;5.548;2022-08-01T01:38:36;2.10;;;1.90;;
24743;SDS011;12844;52.110;5.548;2022-08-01T01:41:08;2.50;;;2.30;;
24743;SDS011;12844;52.110;5.548;2022-08-01T01:43:36;3.05;;;2.67;;
24743;SDS011;12844;52.110;5.548;2022-08-01T01:46:03;3.60;;;2.70;;
24743;SDS011;12844;52.110;5.548;2022-08-01T01:48:29;2.30;;;2.10;;
24743;SDS011;12844;52.110;5.548;2022-08-01T01:50:57;2.50;;;2.30;;
24743;SDS011;12844;52.110;5.548;2022-08-01T01:53:25;2.35;;;2.15;;
24743;SDS011;12844;52.110;5.548;2022-08-01T01:55:53;2.50;;;2.30;;
24743;SDS011;12844;52.110;5.548;2022-08-01T01:58:20;2.88;;;2.40;;
24743;SDS011;12844;52.110;5.548;2022-08-01T02:00:49;2.60;;;2.40;;
24743;SDS011;12844;52.110;5.548;2022-08-01T02:03:17;2.80;;;2.45;;
24743;SDS011;12844;52.110;5.548;2022-08-01T02:05:44;2.17;;;1.90;;
24743;SDS011;12844;52.110;5.548;2022-08-01T02:08:11;2.33;;;2.13;;
24743;SDS011;12844;52.110;5.548;2022-08-01T02:10:41;2.53;;;2.10;;
24743;SDS011;12844;52.110;5.548;2022-08-01T02:13:27;2.20;;;2.00;;
24743;SDS011;12844;52.110;5.548;2022-08-01T02:15:54;2.50;;;2.30;;
24743;SDS011;12844;52.110;5.548;2022-08-01T02:18:20;2.28;;;2.08;;
24743;SDS011;12844;52.110;5.548;2022-08-01T02:20:45;2.33;;;2.13;;
24743;SDS011;12844;52.110;5.548;2022-08-01T02:23:11;2.40;;;2.20;;
24743;SDS011;12844;52.110;5.548;2022-08-01T02:25:48;2.85;;;2.30;;
24743;SDS011;12844;52.110;5.548;2022-08-01T02:28:17;2.55;;;2.08;;
24743;SDS011;12844;52.110;5.548;2022-08-01T02:30:50;2.38;;;2.10;;
24743;SDS011;12844;52.110;5.548;2022-08-01T02:33:20;2.20;;;2.00;;
24743;SDS011;12844;52.110;5.548;2022-08-01T02:35:54;2.30;;;2.05;;
24743;SDS011;12844;52.110;5.548;2022-08-01T02:38:23;1.95;;;1.85;;
24743;SDS011;12844;52.110;5.548;2022-08-01T02:40:52;2.13;;;1.92;;
24743;SDS011;12844;52.110;5.548;2022-08-01T02:43:20;2.30;;;2.00;;
24743;SDS011;12844;52.110;5.548;2022-08-01T02:45:53;2.30;;;2.10;;
24743;SDS011;12844;52.110;5.548;2022-08-01T02:48:23;2.15;;;1.95;;
24743;SDS011;12844;52.110;5.548;2022-08-01T02:50:51;2.60;;;2.25;;
24743;SDS011;12844;52.110;5.548;2022-08-01T02:53:21;2.38;;;2.10;;
24743;SDS011;12844;52.110;5.548;2022-08-01T02:55:49;2.30;;;2.10;;
24743;SDS011;12844;52.110;5.548;2022-08-01T02:58:16;2.33;;;2.10;;
24743;SDS011;12844;52.110;5.548;2022-08-01T03:00:44;2.17;;;1.95;;
24743;SDS011;12844;52.110;5.548;2022-08-01T03:03:11;2.40;;;2.20;;
24743;SDS011;12844;52.110;5.548;2022-08-01T03:05:38;2.05;;;1.85;;
24743;SDS011;12844;52.110;5.548;2022-08-01T03:08:06;2.40;;;2.20;;
24743;SDS011;12844;52.110;5.548;2022-08-01T03:10:33;2.95;;;2.10;;
24743;SDS011;12844;52.110;5.548;2022-08-01T03:13:01;2.22;;;2.03;;
24743;SDS011;12844;52.110;5.548;2022-08-01T03:15:30;2.38;;;2.17;;
24743;SDS011;12844;52.110;5.548;2022-08-01T03:17:58;2.38;;;2.15;;
24743;SDS011;12844;52.110;5.548;2022-08-01T03:20:25;2.22;;;2.03;;
24743;SDS011;12844;52.110;5.548;2022-08-01T03:22:54;2.47;;;2.05;;
24743;SDS011;12844;52.110;5.548;2022-08-01T03:25:22;2.20;;;2.00;;
24743;SDS011;12844;52.110;5.548;2022-08-01T03:27:57;2.35;;;2.10;;
24743;SDS011;12844;52.110;5.548;2022-08-01T03:30:26;2.13;;;1.95;;
24743;SDS011;12844;52.110;5.548;2022-08-01T03:32:52;2.17;;;1.98;;
24743;SDS011;12844;52.110;5.548;2022-08-01T03:35:18;2.22;;;1.98;;
24743;SDS011;12844;52.110;5.548;2022-08-01T03:37:47;2.10;;;1.90;;
24743;SDS011;12844;52.110;5.548;2022-08-01T03:40:23;2.28;;;2.08;;
24743;SDS011;12844;52.110;5.548;2022-08-01T03:42:54;2.25;;;2.05;;
24743;SDS011;12844;52.110;5.548;2022-08-01T03:45:30;3.07;;;1.93;;
24743;SDS011;12844;52.110;5.548;2022-08-01T03:48:05;2.22;;;2.03;;
24743;SDS011;12844;52.110;5.548;2022-08-01T03:50:35;2.13;;;1.90;;
24743;SDS011;12844;52.110;5.548;2022-08-01T03:53:04;2.25;;;2.05;;
24743;SDS011;12844;52.110;5.548;2022-08-01T03:55:32;2.22;;;2.00;;
24743;SDS011;12844;52.110;5.548;2022-08-01T03:57:59;2.22;;;2.03;;
24743;SDS011;12844;52.110;5.548;2022-08-01T04:00:26;2.10;;;1.90;;
24743;SDS011;12844;52.110;5.548;2022-08-01T04:02:52;2.25;;;2.05;;
24743;SDS011;12844;52.110;5.548;2022-08-01T04:05:18;2.25;;;1.88;;
24743;SDS011;12844;52.110;5.548;2022-08-01T04:07:48;2.03;;;1.83;;
24743;SDS011;12844;52.110;5.548;2022-08-01T04:10:20;2.28;;;2.08;;
24743;SDS011;12844;52.110;5.548;2022-08-01T04:12:47;2.08;;;1.88;;
24743;SDS011;12844;52.110;5.548;2022-08-01T04:15:13;2.10;;;1.77;;
24743;SDS011;12844;52.110;5.548;2022-08-01T04:17:39;2.05;;;1.85;;
24743;SDS011;12844;52.110;5.548;2022-08-01T04:20:05;1.90;;;1.70;;
24743;SDS011;12844;52.110;5.548;2022-08-01T04:22:31;2.35;;;1.90;;
24743;SDS011;12844;52.110;5.548;2022-08-01T04:24:57;2.03;;;1.80;;
24743;SDS011;12844;52.110;5.548;2022-08-01T04:27:31;2.13;;;1.90;;
24743;SDS011;12844;52.110;5.548;2022-08-01T04:30:00;2.08;;;1.88;;
24743;SDS011;12844;52.110;5.548;2022-08-01T04:32:27;2.13;;;1.95;;
24743;SDS011;12844;52.110;5.548;2022-08-01T04:34:56;2.15;;;1.85;;
24743;SDS011;12844;52.110;5.548;2022-08-01T04:37:24;2.00;;;1.80;;
24743;SDS011;12844;52.110;5.548;2022-08-01T04:39:52;2.10;;;1.85;;
24743;SDS011;12844;52.110;5.548;2022-08-01T04:42:19;1.95;;;1.73;;
24743;SDS011;12844;52.110;5.548;2022-08-01T04:44:44;1.90;;;1.80;;
24743;SDS011;12844;52.110;5.548;2022-08-01T04:47:10;1.70;;;1.60;;
24743;SDS011;12844;52.110;5.548;2022-08-01T04:49:37;1.77;;;1.63;;
24743;SDS011;12844;52.110;5.548;2022-08-01T04:52:04;2.08;;;1.83;;
24743;SDS011;12844;52.110;5.548;2022-08-01T04:54:32;2.13;;;1.73;;
24743;SDS011;12844;52.110;5.548;2022-08-01T04:57:02;2.00;;;1.80;;
24743;SDS011;12844;52.110;5.548;2022-08-01T04:59:29;2.10;;;1.90;;
24743;SDS011;12844;52.110;5.548;2022-08-01T05:02:04;1.85;;;1.70;;
24743;SDS011;12844;52.110;5.548;2022-08-01T05:04:30;1.73;;;1.60;;
24743;SDS011;12844;52.110;5.548;2022-08-01T05:06:56;1.65;;;1.55;;
24743;SDS011;12844;52.110;5.548;2022-08-01T05:09:21;1.73;;;1.63;;
24743;SDS011;12844;52.110;5.548;2022-08-01T05:11:47;2.05;;;1.70;;
24743;SDS011;12844;52.110;5.548;2022-08-01T05:14:12;1.67;;;1.58;;
24743;SDS011;12844;52.110;5.548;2022-08-01T05:16:38;2.20;;;1.70;;
24743;SDS011;12844;52.110;5.548;2022-08-01T05:19:04;1.55;;;1.45;;
24743;SDS011;12844;52.110;5.548;2022-08-01T05:21:29;1.67;;;1.58;;
24743;SDS011;12844;52.110;5.548;2022-08-01T05:23:55;1.95;;;1.75;;
24743;SDS011;12844;52.110;5.548;2022-08-01T05:26:20;2.00;;;1.80;;
24743;SDS011;12844;52.110;5.548;2022-08-01T05:28:46;1.50;;;1.40;;
24743;SDS011;12844;52.110;5.548;2022-08-01T05:31:11;1.63;;;1.52;;
24743;SDS011;12844;52.110;5.548;2022-08-01T05:33:37;1.60;;;1.50;;
24743;SDS011;12844;52.110;5.548;2022-08-01T05:36:02;1.67;;;1.58;;
24743;SDS011;12844;52.110;5.548;2022-08-01T05:38:28;1.48;;;1.38;;
24743;SDS011;12844;52.110;5.548;2022-08-01T05:40:54;1.77;;;1.48;;
24743;SDS011;12844;52.110;5.548;2022-08-01T05:43:19;1.75;;;1.65;;
24743;SDS011;12844;52.110;5.548;2022-08-01T05:45:45;1.63;;;1.50;;
24743;SDS011;12844;52.110;5.548;2022-08-01T05:48:10;1.60;;;1.50;;
24743;SDS011;12844;52.110;5.548;2022-08-01T05:50:36;1.73;;;1.63;;
24743;SDS011;12844;52.110;5.548;2022-08-01T05:53:02;1.60;;;1.50;;
24743;SDS011;12844;52.110;5.548;2022-08-01T05:55:27;1.92;;;1.80;;
24743;SDS011;12844;52.110;5.548;2022-08-01T05:57:53;1.48;;;1.38;;
24743;SDS011;12844;52.110;5.548;2022-08-01T06:00:19;1.40;;;1.30;;
24743;SDS011;12844;52.110;5.548;2022-08-01T06:02:44;1.60;;;1.50;;
24743;SDS011;12844;52.110;5.548;2022-08-01T06:05:10;1.75;;;1.60;;
24743;SDS011;12844;52.110;5.548;2022-08-01T06:07:35;1.60;;;1.50;;
24743;SDS011;12844;52.110;5.548;2022-08-01T06:10:03;1.70;;;1.60;;
24743;SDS011;12844;52.110;5.548;2022-08-01T06:12:32;1.38;;;1.27;;
24743;SDS011;12844;52.110;5.548;2022-08-01T06:14:58;1.60;;;1.50;;
24743;SDS011;12844;52.110;5.548;2022-08-01T06:17:23;1.73;;;1.45;;
24743;SDS011;12844;52.110;5.548;2022-08-01T06:19:49;1.60;;;1.50;;
24743;SDS011;12844;52.110;5.548;2022-08-01T06:22:14;1.30;;;1.20;;
24743;SDS011;12844;52.110;5.548;2022-08-01T06:24:40;1.70;;;1.55;;
24743;SDS011;12844;52.110;5.548;2022-08-01T06:27:05;1.63;;;1.52;;
24743;SDS011;12844;52.110;5.548;2022-08-01T06:29:31;1.45;;;1.35;;
24743;SDS011;12844;52.110;5.548;2022-08-01T06:31:57;1.50;;;1.40;;
24743;SDS011;12844;52.110;5.548;2022-08-01T06:34:23;1.60;;;1.50;;
24743;SDS011;12844;52.110;5.548;2022-08-01T06:36:48;1.40;;;1.30;;
24743;SDS011;12844;52.110;5.548;2022-08-01T06:39:14;1.60;;;1.50;;
24743;SDS011;12844;52.110;5.548;2022-08-01T06:41:40;2.03;;;1.40;;
24743;SDS011;12844;52.110;5.548;2022-08-01T06:44:11;1.65;;;1.40;;
24743;SDS011;12844;52.110;5.548;2022-08-01T06:46:36;1.45;;;1.35;;
24743;SDS011;12844;52.110;5.548;2022-08-01T06:49:02;1.70;;;1.50;;
24743;SDS011;12844;52.110;5.548;2022-08-01T06:51:27;1.25;;;1.15;;
24743;SDS011;12844;52.110;5.548;2022-08-01T06:53:53;1.50;;;1.40;;
24743;SDS011;12844;52.110;5.548;2022-08-01T06:56:19;1.55;;;1.42;;
24743;SDS011;12844;52.110;5.548;2022-08-01T06:58:44;1.67;;;1.50;;
24743;SDS011;12844;52.110;5.548;2022-08-01T07:01:10;1.73;;;1.63;;
24743;SDS011;12844;52.110;5.548;2022-08-01T07:03:36;1.55;;;1.45;;
24743;SDS011;12844;52.110;5.548;2022-08-01T07:06:02;1.20;;;1.10;;
24743;SDS011;12844;52.110;5.548;2022-08-01T07:08:28;1.40;;;1.30;;
24743;SDS011;12844;52.110;5.548;2022-08-01T07:10:54;1.40;;;1.30;;
24743;SDS011;12844;52.110;5.548;2022-08-01T07:13:20;1.27;;;1.17;;
24743;SDS011;12844;52.110;5.548;2022-08-01T07:15:49;1.58;;;1.48;;
24743;SDS011;12844;52.110;5.548;2022-08-01T07:18:15;1.70;;;1.60;;
24743;SDS011;12844;52.110;5.548;2022-08-01T07:20:41;1.20;;;1.10;;
24743;SDS011;12844;52.110;5.548;2022-08-01T07:23:06;1.50;;;1.40;;
24743;SDS011;12844;52.110;5.548;2022-08-01T07:25:32;1.50;;;1.40;;
24743;SDS011;12844;52.110;5.548;2022-08-01T07:27:57;1.92;;;1.25;;
24743;SDS011;12844;52.110;5.548;2022-08-01T07:30:23;1.40;;;1.30;;
24743;SDS011;12844;52.110;5.548;2022-08-01T07:32:49;1.40;;;1.30;;
24743;SDS011;12844;52.110;5.548;2022-08-01T07:35:14;1.33;;;1.23;;
24743;SDS011;12844;52.110;5.548;2022-08-01T07:37:40;1.48;;;1.38;;
24743;SDS011;12844;52.110;5.548;2022-08-01T07:40:05;1.40;;;1.30;;
24743;SDS011;12844;52.110;5.548;2022-08-01T07:42:31;1.60;;;1.33;;
24743;SDS011;12844;52.110;5.548;2022-08-01T07:44:57;1.98;;;1.48;;
24743;SDS011;12844;52.110;5.548;2022-08-01T07:47:26;1.20;;;1.10;;
24743;SDS011;12844;52.110;5.548;2022-08-01T07:49:52;1.70;;;1.25;;
24743;SDS011;12844;52.110;5.548;2022-08-01T07:52:23;1.20;;;1.10;;
24743;SDS011;12844;52.110;5.548;2022-08-01T07:54:49;1.73;;;1.50;;
24743;SDS011;12844;52.110;5.548;2022-08-01T07:57:15;1.48;;;1.38;;
24743;SDS011;12844;52.110;5.548;2022-08-01T07:59:40;1.73;;;1.30;;
24743;SDS011;12844;52.110;5.548;2022-08-01T08:02:06;1.40;;;1.30;;
24743;SDS011;12844;52.110;5.548;2022-08-01T08:04:31;1.50;;;1.27;;
24743;SDS011;12844;52.110;5.548;2022-08-01T08:06:57;1.52;;;1.40;;
24743;SDS011;12844;52.110;5.548;2022-08-01T08:09:22;1.25;;;1.15;;
24743;SDS011;12844;52.110;5.548;2022-08-01T08:11:48;1.35;;;1.20;;
24743;SDS011;12844;52.110;5.548;2022-08-01T08:14:14;1.60;;;1.40;;
24743;SDS011;12844;52.110;5.548;2022-08-01T08:16:40;1.38;;;1.27;;
24743;SDS011;12844;52.110;5.548;2022-08-01T08:19:06;1.52;;;1.40;;
24743;SDS011;12844;52.110;5.548;2022-08-01T08:21:32;1.50;;;1.40;;
24743;SDS011;12844;52.110;5.548;2022-08-01T08:23:57;1.20;;;1.10;;
24743;SDS011;12844;52.110;5.548;2022-08-01T08:26:42;1.50;;;1.40;;
24743;SDS011;12844;52.110;5.548;2022-08-01T08:29:07;1.42;;;1.30;;
24743;SDS011;12844;52.110;5.548;2022-08-01T08:31:33;1.40;;;1.20;;
24743;SDS011;12844;52.110;5.548;2022-08-01T08:33:58;1.30;;;1.20;;
24743;SDS011;12844;52.110;5.548;2022-08-01T08:36:24;2.13;;;1.30;;
24743;SDS011;12844;52.110;5.548;2022-08-01T08:38:49;1.40;;;1.30;;
24743;SDS011;12844;52.110;5.548;2022-08-01T08:41:15;1.40;;;1.30;;
24743;SDS011;12844;52.110;5.548;2022-08-01T08:43:41;1.23;;;1.13;;
24743;SDS011;12844;52.110;5.548;2022-08-01T08:46:07;1.45;;;1.35;;
24743;SDS011;12844;52.110;5.548;2022-08-01T08:48:33;1.50;;;1.38;;
24743;SDS011;12844;52.110;5.548;2022-08-01T08:51:00;1.50;;;1.40;;
24743;SDS011;12844;52.110;5.548;2022-08-01T08:53:26;1.75;;;1.30;;
24743;SDS011;12844;52.110;5.548;2022-08-01T08:55:54;1.40;;;1.30;;
24743;SDS011;12844;52.110;5.548;2022-08-01T08:58:21;1.30;;;1.20;;
24743;SDS011;12844;52.110;5.548;2022-08-01T09:00:50;1.50;;;1.40;;
24743;SDS011;12844;52.110;5.548;2022-08-01T09:03:16;1.55;;;1.35;;
24743;SDS011;12844;52.110;5.548;2022-08-01T09:05:42;1.30;;;1.20;;
24743;SDS011;12844;52.110;5.548;2022-08-01T09:08:08;2.33;;;1.33;;
24743;SDS011;12844;52.110;5.548;2022-08-01T09:10:33;1.58;;;1.48;;
24743;SDS011;12844;52.110;5.548;2022-08-01T09:13:09;1.88;;;1.30;;
24743;SDS011;12844;52.110;5.548;2022-08-01T09:15:40;1.65;;;1.30;;
24743;SDS011;12844;52.110;5.548;2022-08-01T09:18:41;1.30;;;1.13;;
24743;SDS011;12844;52.110;5.548;2022-08-01T09:21:17;1.67;;;1.20;;
24743;SDS011;12844;52.110;5.548;2022-08-01T09:26:14;1.33;;;1.08;;
24743;SDS011;12844;52.110;5.548;2022-08-01T09:28:42;1.30;;;1.20;;
24743;SDS011;12844;52.110;5.548;2022-08-01T09:31:12;2.05;;;1.13;;
24743;SDS011;12844;52.110;5.548;2022-08-01T09:33:49;1.30;;;1.20;;
24743;SDS011;12844;52.110;5.548;2022-08-01T09:36:17;1.27;;;1.17;;
24743;SDS011;12844;52.110;5.548;2022-08-01T09:38:44;1.50;;;1.40;;
24743;SDS011;12844;52.110;5.548;2022-08-01T09:41:09;1.40;;;1.10;;
24743;SDS011;12844;52.110;5.548;2022-08-01T09:43:36;1.48;;;1.20;;
24743;SDS011;12844;52.110;5.548;2022-08-01T09:46:08;1.50;;;1.10;;
24743;SDS011;12844;52.110;5.548;2022-08-01T09:48:36;1.55;;;1.20;;
24743;SDS011;12844;52.110;5.548;2022-08-01T09:51:04;1.38;;;1.20;;
24743;SDS011;12844;52.110;5.548;2022-08-01T09:53:45;1.30;;;1.20;;
24743;SDS011;12844;52.110;5.548;2022-08-01T09:56:12;1.10;;;1.00;;
24743;SDS011;12844;52.110;5.548;2022-08-01T10:01:16;1.20;;;1.10;;
24743;SDS011;12844;52.110;5.548;2022-08-01T10:03:45;1.35;;;1.10;;
24743;SDS011;12844;52.110;5.548;2022-08-01T10:06:20;1.13;;;1.02;;
24743;SDS011;12844;52.110;5.548;2022-08-01T10:08:47;1.30;;;1.20;;
24743;SDS011;12844;52.110;5.548;2022-08-01T10:11:13;1.40;;;1.10;;
24743;SDS011;12844;52.110;5.548;2022-08-01T10:13:39;1.65;;;1.27;;
24743;SDS011;12844;52.110;5.548;2022-08-01T10:16:05;1.52;;;1.20;;
24743;SDS011;12844;52.110;5.548;2022-08-01T10:18:33;1.20;;;1.05;;
24743;SDS011;12844;52.110;5.548;2022-08-01T10:21:00;1.30;;;1.20;;
24743;SDS011;12844;52.110;5.548;2022-08-01T10:23:26;1.90;;;1.42;;
24743;SDS011;12844;52.110;5.548;2022-08-01T10:25:55;1.55;;;1.23;;
24743;SDS011;12844;52.110;5.548;2022-08-01T10:28:23;1.42;;;1.20;;
24743;SDS011;12844;52.110;5.548;2022-08-01T10:30:50;1.55;;;1.17;;
24743;SDS011;12844;52.110;5.548;2022-08-01T10:33:16;1.73;;;1.10;;
24743;SDS011;12844;52.110;5.548;2022-08-01T10:35:43;1.08;;;0.98;;
24743;SDS011;12844;52.110;5.548;2022-08-01T10:38:10;1.13;;;1.02;;
24743;SDS011;12844;52.110;5.548;2022-08-01T10:40:36;1.40;;;1.30;;
24743;SDS011;12844;52.110;5.548;2022-08-01T10:43:02;1.30;;;1.10;;
24743;SDS011;12844;52.110;5.548;2022-08-01T10:45:28;1.40;;;1.30;;
24743;SDS011;12844;52.110;5.548;2022-08-01T10:48:09;1.08;;;1.00;;
24743;SDS011;12844;52.110;5.548;2022-08-01T10:50:44;1.20;;;1.05;;
24743;SDS011;12844;52.110;5.548;2022-08-01T10:55:49;1.25;;;1.00;;
24743;SDS011;12844;52.110;5.548;2022-08-01T10:58:24;1.13;;;1.02;;
24743;SDS011;12844;52.110;5.548;2022-08-01T11:03:39;1.25;;;1.10;;
24743;SDS011;12844;52.110;5.548;2022-08-01T11:06:04;1.10;;;1.00;;
24743;SDS011;12844;52.110;5.548;2022-08-01T11:08:30;1.10;;;1.00;;
24743;SDS011;12844;52.110;5.548;2022-08-01T11:11:02;1.33;;;1.10;;
24743;SDS011;12844;52.110;5.548;2022-08-01T11:16:27;1.30;;;1.17;;
24743;SDS011;12844;52.110;5.548;2022-08-01T11:18:54;1.48;;;0.98;;
24743;SDS011;12844;52.110;5.548;2022-08-01T11:21:19;1.10;;;1.00;;
24743;SDS011;12844;52.110;5.548;2022-08-01T11:23:49;1.20;;;1.10;;
24743;SDS011;12844;52.110;5.548;2022-08-01T11:26:18;1.13;;;1.02;;
24743;SDS011;12844;52.110;5.548;2022-08-01T11:28:44;1.02;;;0.93;;
24743;SDS011;12844;52.110;5.548;2022-08-01T11:31:30;1.30;;;1.20;;
24743;SDS011;12844;52.110;5.548;2022-08-01T11:33:57;1.30;;;1.10;;
24743;SDS011;12844;52.110;5.548;2022-08-01T11:36:23;1.38;;;1.15;;
24743;SDS011;12844;52.110;5.548;2022-08-01T11:39:10;1.50;;;1.05;;
24743;SDS011;12844;52.110;5.548;2022-08-01T11:41:36;1.23;;;1.05;;
24743;SDS011;12844;52.110;5.548;2022-08-01T11:44:15;0.93;;;0.90;;
24743;SDS011;12844;52.110;5.548;2022-08-01T11:54:28;1.83;;;1.00;;
24743;SDS011;12844;52.110;5.548;2022-08-01T11:56:55;0.80;;;0.80;;
24743;SDS011;12844;52.110;5.548;2022-08-01T11:59:25;1.20;;;1.10;;
24743;SDS011;12844;52.110;5.548;2022-08-01T12:01:52;1.30;;;1.00;;
24743;SDS011;12844;52.110;5.548;2022-08-01T12:04:18;1.30;;;1.00;;
24743;SDS011;12844;52.110;5.548;2022-08-01T12:06:43;1.23;;;1.00;;
24743;SDS011;12844;52.110;5.548;2022-08-01T12:09:19;1.25;;;1.15;;
24743;SDS011;12844;52.110;5.548;2022-08-01T12:11:48;1.30;;;1.20;;
24743;SDS011;12844;52.110;5.548;2022-08-01T12:14:20;1.10;;;0.93;;
24743;SDS011;12844;52.110;5.548;2022-08-01T12:19:20;1.00;;;0.90;;
24743;SDS011;12844;52.110;5.548;2022-08-01T12:24:32;1.05;;;0.93;;
24743;SDS011;12844;52.110;5.548;2022-08-01T12:26:58;1.45;;;0.82;;
24743;SDS011;12844;52.110;5.548;2022-08-01T12:29:31;1.10;;;1.00;;
24743;SDS011;12844;52.110;5.548;2022-08-01T12:32:25;1.23;;;1.13;;
24743;SDS011;12844;52.110;5.548;2022-08-01T12:34:56;1.30;;;1.20;;
24743;SDS011;12844;52.110;5.548;2022-08-01T12:37:26;1.00;;;0.95;;
24743;SDS011;12844;52.110;5.548;2022-08-01T12:39:51;1.63;;;1.17;;
24743;SDS011;12844;52.110;5.548;2022-08-01T12:42:17;1.25;;;1.05;;
24743;SDS011;12844;52.110;5.548;2022-08-01T12:44:44;2.17;;;1.13;;
24743;SDS011;12844;52.110;5.548;2022-08-01T12:49:42;1.48;;;1.00;;
24743;SDS011;12844;52.110;5.548;2022-08-01T12:52:09;0.95;;;0.90;;
24743;SDS011;12844;52.110;5.548;2022-08-01T12:57:27;0.82;;;0.80;;
24743;SDS011;12844;52.110;5.548;2022-08-01T12:59:53;1.13;;;1.00;;
24743;SDS011;12844;52.110;5.548;2022-08-01T13:02:31;1.30;;;1.00;;
24743;SDS011;12844;52.110;5.548;2022-08-01T13:04:58;1.83;;;1.10;;
24743;SDS011;12844;52.110;5.548;2022-08-01T13:07:34;1.27;;;1.00;;
24743;SDS011;12844;52.110;5.548;2022-08-01T13:10:03;0.98;;;0.82;;
24743;SDS011;12844;52.110;5.548;2022-08-01T13:12:29;1.02;;;1.00;;
24743;SDS011;12844;52.110;5.548;2022-08-01T13:14:55;1.00;;;0.90;;
24743;SDS011;12844;52.110;5.548;2022-08-01T13:17:33;1.25;;;1.10;;
24743;SDS011;12844;52.110;5.548;2022-08-01T13:22:33;1.08;;;0.98;;
24743;SDS011;12844;52.110;5.548;2022-08-01T13:25:14;0.75;;;0.75;;
24743;SDS011;12844;52.110;5.548;2022-08-01T13:27:41;1.20;;;1.00;;
24743;SDS011;12844;52.110;5.548;2022-08-01T13:30:14;1.15;;;0.80;;
24743;SDS011;12844;52.110;5.548;2022-08-01T13:32:41;1.00;;;0.90;;
24743;SDS011;12844;52.110;5.548;2022-08-01T13:35:09;1.20;;;0.90;;
24743;SDS011;12844;52.110;5.548;2022-08-01T13:37:38;1.13;;;1.00;;
24743;SDS011;12844;52.110;5.548;2022-08-01T13:40:06;1.35;;;1.00;;
24743;SDS011;12844;52.110;5.548;2022-08-01T13:42:33;1.50;;;0.90;;
24743;SDS011;12844;52.110;5.548;2022-08-01T13:44:59;0.95;;;0.70;;
24743;SDS011;12844;52.110;5.548;2022-08-01T13:47:25;1.02;;;1.00;;
24743;SDS011;12844;52.110;5.548;2022-08-01T13:49:50;1.10;;;1.00;;
24743;SDS011;12844;52.110;5.548;2022-08-01T13:52:16;0.80;;;0.80;;
24743;SDS011;12844;52.110;5.548;2022-08-01T13:54:41;1.38;;;0.90;;
24743;SDS011;12844;52.110;5.548;2022-08-01T13:57:07;0.77;;;0.77;;
24743;SDS011;12844;52.110;5.548;2022-08-01T13:59:34;1.10;;;1.00;;
24743;SDS011;12844;52.110;5.548;2022-08-01T14:01:59;0.90;;;0.80;;
24743;SDS011;12844;52.110;5.548;2022-08-01T14:04:25;0.93;;;0.90;;
24743;SDS011;12844;52.110;5.548;2022-08-01T14:06:51;0.82;;;0.82;;
24743;SDS011;12844;52.110;5.548;2022-08-01T14:09:16;0.90;;;0.90;;
24743;SDS011;12844;52.110;5.548;2022-08-01T14:11:44;1.00;;;0.90;;
24743;SDS011;12844;52.110;5.548;2022-08-01T14:14:10;1.05;;;0.80;;
24743;SDS011;12844;52.110;5.548;2022-08-01T14:16:35;1.15;;;0.80;;
24743;SDS011;12844;52.110;5.548;2022-08-01T14:19:02;0.95;;;0.85;;
24743;SDS011;12844;52.110;5.548;2022-08-01T14:21:28;1.00;;;0.90;;
24743;SDS011;12844;52.110;5.548;2022-08-01T14:23:54;0.73;;;0.73;;
24743;SDS011;12844;52.110;5.548;2022-08-01T14:26:19;0.70;;;0.70;;
24743;SDS011;12844;52.110;5.548;2022-08-01T14:28:45;0.98;;;0.80;;
24743;SDS011;12844;52.110;5.548;2022-08-01T14:31:10;0.90;;;0.70;;
24743;SDS011;12844;52.110;5.548;2022-08-01T14:33:36;0.75;;;0.75;;
24743;SDS011;12844;52.110;5.548;2022-08-01T14:36:01;0.80;;;0.80;;
24743;SDS011;12844;52.110;5.548;2022-08-01T14:38:27;1.42;;;0.90;;
24743;SDS011;12844;52.110;5.548;2022-08-01T14:40:53;0.80;;;0.80;;
24743;SDS011;12844;52.110;5.548;2022-08-01T14:43:19;0.82;;;0.80;;
24743;SDS011;12844;52.110;5.548;2022-08-01T14:45:45;1.05;;;0.90;;
24743;SDS011;12844;52.110;5.548;2022-08-01T14:48:14;0.95;;;0.70;;
24743;SDS011;12844;52.110;5.548;2022-08-01T14:50:40;0.95;;;0.70;;
24743;SDS011;12844;52.110;5.548;2022-08-01T14:53:05;0.68;;;0.65;;
24743;SDS011;12844;52.110;5.548;2022-08-01T14:55:31;0.82;;;0.82;;
24743;SDS011;12844;52.110;5.548;2022-08-01T14:57:57;1.00;;;0.90;;
24743;SDS011;12844;52.110;5.548;2022-08-01T15:00:22;0.80;;;0.80;;
24743;SDS011;12844;52.110;5.548;2022-08-01T15:02:48;1.27;;;0.85;;
24743;SDS011;12844;52.110;5.548;2022-08-01T15:05:13;0.70;;;0.70;;
24743;SDS011;12844;52.110;5.548;2022-08-01T15:07:39;0.80;;;0.80;;
24743;SDS011;12844;52.110;5.548;2022-08-01T15:10:04;0.85;;;0.80;;
24743;SDS011;12844;52.110;5.548;2022-08-01T15:12:31;0.80;;;0.80;;
24743;SDS011;12844;52.110;5.548;2022-08-01T15:14:56;0.82;;;0.82;;
24743;SDS011;12844;52.110;5.548;2022-08-01T15:17:23;0.90;;;0.70;;
24743;SDS011;12844;52.110;5.548;2022-08-01T15:19:52;1.67;;;1.10;;
24743;SDS011;12844;52.110;5.548;2022-08-01T15:22:19;0.70;;;0.65;;
24743;SDS011;12844;52.110;5.548;2022-08-01T15:24:49;0.82;;;0.80;;
24743;SDS011;12844;52.110;5.548;2022-08-01T15:27:16;1.13;;;0.80;;
24743;SDS011;12844;52.110;5.548;2022-08-01T15:29:41;0.60;;;0.60;;
24743;SDS011;12844;52.110;5.548;2022-08-01T15:32:07;0.70;;;0.70;;
24743;SDS011;12844;52.110;5.548;2022-08-01T15:34:33;1.00;;;0.88;;
24743;SDS011;12844;52.110;5.548;2022-08-01T15:37:00;0.75;;;0.75;;